Quito, Ecuador

9:13 AM ECT en Julio 23, 2014 (GMT -0500)
Yanahuaico (IPICHINC3) Alt 8504 ft | 0.36 °S, 78.50 °W | Change Station

Current weather conditions updated 50 seconds ago

Mostly Cloudy
Muy nublado
63.9 ° F
Sensación térmica 63.9 ° F
N
5.0
Viento Variable Viento desde Oeste
Gusts 8.0 mph

Hoy se prevé un día Mucho más frío que ayer. Chubascos tormentosos por la tarde..

Hoy
Alta -- | Baja -- ° F
--% Posibilidad de precipitaciones
Ayer
Alta -- | Baja -- ° F
Precip. -- pul
6:17 AM 6:23 PM
Creciente menguante, 10% visible
Presión 30.48 pul
Visibilidad 6.2 Millas
Nubes Muy nublado 2600 ft
Punto de rocío 49 ° F
Humedad 58%
Precipitaciones 0.00 pul
Espesor de la nieve No disponible.
UV 4 de una escala de 12
Polen No disponible.
Calidad del aire No disponible.
Flu Activity No disponible.
METAR SELT 231400Z 18011KT 9999 BKN026 13/10 Q1032

More Conditions Fewer Conditions

Presión 30.48 pul
Visibilidad 6.2 Millas
Nubes Muy nublado 2600 ft
Punto de rocío 49 ° F
Humedad 58%
Precipitaciones 0.00 pul
Espesor de la nieve No disponible.
UV 4 de una escala de 12
Polen No disponible.
Calidad del aire No disponible.
Flu Activity No disponible.
METAR SELT 231400Z 18011KT 9999 BKN026 13/10 Q1032

More Conditions Fewer Conditions

10-Day Weather Forecast

Almanac

Astronomía

Jul. 23, 2014 Salida Puesta
Hora real 6:17 AM ECT 6:23 PM ECT
Crepúsculo civil 5:55 AM ECT 6:45 PM ECT
Crepúsculo náutico 5:29 AM ECT 7:11 PM ECT
Crepúsculo astronómico 5:03 AM ECT 7:36 PM ECT
Luna 3:30 AM ECT 3:54 PM ECT
Horas de luz 12h 50m
Horas de luz
12h 06m
Tomorrow will be 0m 0s shorter.
Creciente menguante, 10% of the Moon is Illuminated
Hoy
Creciente menguante
Jul 26
Nueva
Ago 3
Cuarto creciente
Ago 10
Luna llena
Ago 17
Cuarto menguante

Extremos de ayer

Máximos del país Bajas del país

Community

WunderPhotos

Upload Photos

1,736,600 ¡fotos cargadas!

Nearby

Calidad del aire

Not available.

Grosos de nieve

Not available.

Actividad de terremotos

Ciudad Distance Mag. Tiempo y dato
No hay informes recientes de la actividad sísmica.
Magnitud mínima muestra es 2,5.

Temperaturas de aguas costeras

Lugar Temperatura
Sin partes meteorológicos de las estaciones

Estaciones meteorológicas cercanas

Ubicación de la estación Temp. Punto de rocío Humedad Viento Precip. Alt Actualizado Tipo
Yanahuaico, Quito 63.9 ° F 49 ° F 58% Oeste  a  5.0 mph 0.00 pul / hr 8504 ft 9:12 AM ECT Normal

Show More Stations Show Fewer Stations